M I D A S
Marine Information and Data Acquisition System
Tripno 1978 of the Zeeleeuw from 2010-10-21 07:17:02 to 2010-10-21 15:28:27
Back to CruiseResearch ActivitiesStationsMapUnderway DataData graphs

EquipmentUnitsComment
TimeDGPSUTC
LatitudeDGPSDM.mWGS84
LongitudeDGPSDM.mWGS84
HeadingGyrodeg 
SOGDGPSknotsSpeed over ground
COGDGPSdegCourse over ground
DepthEcho soundermeters200 kHz
Missing or incorrect values are displayed as -999
Navigation data collected by the RV Zeeleeuw from 2010-10-21 06:05:45 to 2010-10-21 15:34:58
Time Latitude Longitude Heading SOG COG Depth
2010-10-21 06:06:50 51°13.663 2°55.962 123.8 0.1 60 -999
2010-10-21 06:07:50 51°13.663 2°55.961 124.4 -999 5 -999
2010-10-21 06:08:50 51°13.663 2°55.96 123.9 0.1 156 -999
2010-10-21 06:09:49 51°13.663 2°55.96 124.1 -999 73 -999
2010-10-21 06:10:49 51°13.663 2°55.96 123.8 -999 123 -999
2010-10-21 06:11:50 51°13.662 2°55.96 123.5 -999 257 -999
2010-10-21 06:12:49 51°13.663 2°55.96 123.6 -999 258 -999
2010-10-21 06:13:49 51°13.662 2°55.96 124.2 0.1 107 -999
2010-10-21 06:14:50 51°13.662 2°55.961 123.9 -999 114 -999
2010-10-21 06:15:49 51°13.662 2°55.96 124 -999 205 -999
2010-10-21 06:16:50 51°13.662 2°55.96 123.2 -999 9 -999
2010-10-21 06:17:49 51°13.662 2°55.96 123.7 0.1 138 -999
2010-10-21 06:18:49 51°13.662 2°55.96 123.5 0.1 154 -999
2010-10-21 06:19:50 51°13.662 2°55.96 123.9 -999 12 -999
2010-10-21 06:20:50 51°13.662 2°55.96 123.9 -999 339 -999
2010-10-21 06:21:49 51°13.662 2°55.96 124.2 -999 200 -999
2010-10-21 06:22:50 51°13.662 2°55.96 123.6 -999 351 -999
2010-10-21 06:23:49 51°13.662 2°55.96 124.4 -999 4 7.5
2010-10-21 06:24:48 51°13.662 2°55.96 124.3 -999 31 7.6
2010-10-21 06:25:48 51°13.662 2°55.96 123.8 -999 189 7.5
2010-10-21 06:26:48 51°13.662 2°55.96 123.9 -999 179 7.6
2010-10-21 06:27:47 51°13.662 2°55.96 123.5 -999 147 7.8
2010-10-21 06:28:47 51°13.662 2°55.96 123.4 -999 14 7.5
2010-10-21 06:29:46 51°13.662 2°55.96 123.5 -999 185 7.6
2010-10-21 06:30:46 51°13.662 2°55.96 123.8 -999 259 7.6
2010-10-21 06:31:46 51°13.662 2°55.96 123.6 -999 179 5.7
2010-10-21 06:32:46 51°13.662 2°55.96 123.5 -999 192 7.6
2010-10-21 06:33:46 51°13.663 2°55.96 123.7 -999 283 7.7
2010-10-21 06:34:46 51°13.662 2°55.962 123.5 -999 197 7.6
2010-10-21 06:35:46 51°13.662 2°55.962 123.2 -999 335 5.7
2010-10-21 06:36:46 51°13.664 2°55.96 123.1 -999 45 7.6
2010-10-21 06:37:46 51°13.662 2°55.961 124.2 -999 128 7.7
2010-10-21 06:38:46 51°13.663 2°55.961 123.3 -999 21 5.8
2010-10-21 06:39:46 51°13.662 2°55.962 123.4 -999 279 7.6
2010-10-21 06:40:46 51°13.662 2°55.961 123.7 -999 256 7.6
2010-10-21 06:41:46 51°13.662 2°55.961 124 -999 234 5.7
2010-10-21 06:42:46 51°13.662 2°55.961 123.6 -999 95 7.7
2010-10-21 06:43:46 51°13.662 2°55.96 123.6 -999 208 5.8
2010-10-21 06:44:46 51°13.662 2°55.961 124.4 -999 335 7.7
2010-10-21 06:45:46 51°13.662 2°55.96 123.2 -999 11 7.7
2010-10-21 06:46:47 51°13.662 2°55.96 123.1 -999 318 7.6
2010-10-21 06:47:46 51°13.663 2°55.96 123.9 -999 110 7.8
2010-10-21 06:48:46 51°13.661 2°55.96 123.3 -999 135 7.7
2010-10-21 06:49:46 51°13.662 2°55.96 125.1 -999 283 7.6
2010-10-21 06:50:46 51°13.662 2°55.96 123.1 -999 206 7.8
2010-10-21 06:51:46 51°13.663 2°55.96 123.5 -999 119 7.7
2010-10-21 06:52:46 51°13.663 2°55.96 123.3 -999 189 7.8
2010-10-21 06:53:47 51°13.663 2°55.96 123.9 -999 153 7.8
2010-10-21 06:54:46 51°13.663 2°55.96 125.3 -999 324 7.8
2010-10-21 06:55:46 51°13.662 2°55.96 123.2 -999 244 7.8
2010-10-21 06:56:46 51°13.66 2°55.961 122.9 -999 176 -999
2010-10-21 06:57:46 51°13.66 2°55.959 123 -999 52 7.7
2010-10-21 06:58:46 51°13.662 2°55.96 123.5 -999 198 7.8
2010-10-21 06:59:46 51°13.662 2°55.96 123.7 -999 149 7.7
2010-10-21 07:00:46 51°13.662 2°55.96 123.1 -999 150 7.8
2010-10-21 07:01:46 51°13.661 2°55.961 123.1 -999 282 7.8
2010-10-21 07:02:46 51°13.661 2°55.961 123 -999 65 7.8
2010-10-21 07:03:46 51°13.661 2°55.96 123.1 -999 296 7.7
2010-10-21 07:04:46 51°13.661 2°55.96 123.1 -999 358 7.8
2010-10-21 07:05:46 51°13.662 2°55.96 123.1 -999 11 7.7
2010-10-21 07:06:46 51°13.662 2°55.96 123.6 -999 273 7.8
2010-10-21 07:07:46 51°13.662 2°55.96 123.5 -999 16 7.8
2010-10-21 07:08:46 51°13.662 2°55.96 123.4 -999 257 7.8
2010-10-21 07:09:47 51°13.662 2°55.961 123 -999 336 7.8
2010-10-21 07:10:46 51°13.662 2°55.961 123.7 -999 216 -999
2010-10-21 07:11:46 51°13.662 2°55.961 125.2 -999 135 7.8
2010-10-21 07:12:46 51°13.662 2°55.961 125.2 -999 50 5.9
2010-10-21 07:13:46 51°13.663 2°55.959 125.2 -999 61 5.9
2010-10-21 07:14:46 51°13.662 2°55.959 125.2 -999 69 -999
2010-10-21 07:15:46 51°13.663 2°55.96 125.2 -999 160 7.9
2010-10-21 07:16:46 51°13.663 2°55.96 127.5 0.1 90 7.9
2010-10-21 07:17:46 51°13.663 2°55.96 116.2 0.1 190 7.9
2010-10-21 07:18:46 51°13.666 2°55.949 109.5 1.9 295 8
2010-10-21 07:19:50 51°13.688 2°55.841 99.4 4.8 282 -999
2010-10-21 07:20:50 51°13.695 2°55.746 82.7 1.6 277 13.3
2010-10-21 07:21:47 51°13.704 2°55.748 29.8 0.3 349 13.3
2010-10-21 07:22:50 51°13.707 2°55.737 343.6 2.6 339 13.2
2010-10-21 07:23:48 51°13.792 2°55.664 333.2 8.3 333 11.6
2010-10-21 07:24:47 51°13.935 2°55.556 334.4 10.4 334 -999
2010-10-21 07:25:48 51°14.101 2°55.433 335.1 11.2 335 10.1
2010-10-21 07:26:50 51°14.273 2°55.28 329.4 11.7 329 -999
2010-10-21 07:27:49 51°14.443 2°55.111 327.3 12.7 328 9.9
2010-10-21 07:28:47 51°14.614 2°54.927 326.4 12.7 325 11.5
2010-10-21 07:29:46 51°14.78 2°54.731 325.8 12.5 322 11.6
2010-10-21 07:30:46 51°14.938 2°54.517 316.1 12 310 11.2
2010-10-21 07:31:46 51°15.004 2°54.209 281.4 12.8 277 8.8
2010-10-21 07:32:46 51°15.022 2°53.862 278.8 13.3 275 9.9
2010-10-21 07:33:46 51°15.058 2°53.519 283.2 13 280 10
2010-10-21 07:34:46 51°15.096 2°53.178 283 13 280 10.4
2010-10-21 07:35:46 51°15.138 2°52.837 284 13.1 280 10.7
2010-10-21 07:36:46 51°15.177 2°52.492 283.8 13.2 280 11.2
2010-10-21 07:37:46 51°15.218 2°52.146 285.4 13.3 282 11.1
2010-10-21 07:38:46 51°15.257 2°51.798 283.7 13.4 279 11.7
2010-10-21 07:39:46 51°15.256 2°51.438 269.1 13.8 269 12.2
2010-10-21 07:40:46 51°15.235 2°51.076 266.9 13.6 266 12.6
2010-10-21 07:41:46 51°15.217 2°50.718 268.3 13.5 264 13
2010-10-21 07:42:46 51°15.201 2°50.362 268.3 13.6 263 13.2
2010-10-21 07:43:46 51°15.186 2°50.004 268.9 13.6 268 13.2
2010-10-21 07:44:46 51°15.165 2°49.651 265.7 13.4 264 13.2
2010-10-21 07:45:46 51°15.131 2°49.298 261.1 13.6 262 13
2010-10-21 07:46:46 51°15.097 2°48.948 262.8 13.4 265 12.7
2010-10-21 07:47:46 51°15.063 2°48.598 264.5 13.4 263 13.6
2010-10-21 07:48:46 51°15.035 2°48.246 265.6 13.5 262 13.6
2010-10-21 07:49:46 51°15.007 2°47.895 264.2 13.3 265 13.2
2010-10-21 07:50:46 51°14.976 2°47.548 264.7 13.2 263 12.5
2010-10-21 07:51:46 51°14.945 2°47.203 264.6 13.1 267 11
2010-10-21 07:52:46 51°14.908 2°46.861 259.8 13.1 256 9.9
2010-10-21 07:53:46 51°14.863 2°46.522 258.2 13 260 9.2
2010-10-21 07:54:46 51°14.816 2°46.18 260.3 13.1 260 9.6
2010-10-21 07:55:46 51°14.77 2°45.836 258.3 13.3 253 10.3
2010-10-21 07:56:46 51°14.73 2°45.489 263.4 13.2 258 11.7
2010-10-21 07:57:46 51°14.696 2°45.137 262.6 13.4 263 13.3
2010-10-21 07:58:46 51°14.667 2°44.784 264.4 13.4 265 14.3
2010-10-21 07:59:46 51°14.63 2°44.433 263.4 13.4 261 15.4
2010-10-21 08:00:46 51°14.596 2°44.082 262 13.4 263 16.4
2010-10-21 08:01:46 51°14.556 2°43.73 261.2 13.6 255 17.3
2010-10-21 08:02:46 51°14.502 2°43.384 255.3 13.4 253 17.2
2010-10-21 08:03:46 51°14.431 2°43.044 251 13.5 247 17.6
2010-10-21 08:04:46 51°14.341 2°42.714 246.8 13.7 247 17.6
2010-10-21 08:05:46 51°14.253 2°42.384 248.9 13.9 242 17.7
2010-10-21 08:06:46 51°14.167 2°42.054 249 13.7 250 17.2
2010-10-21 08:07:46 51°14.078 2°41.73 246.8 13.5 243 18.7
2010-10-21 08:08:46 51°13.996 2°41.404 249.5 13.2 249 17.6
2010-10-21 08:09:46 51°13.908 2°41.083 250.5 13 250 17.1
2010-10-21 08:10:46 51°13.827 2°40.755 249.4 13.7 247 16.1
2010-10-21 08:11:46 51°13.735 2°40.437 245 13.2 244 15.8
2010-10-21 08:12:46 51°13.627 2°40.129 238.8 13.3 241 15.6
2010-10-21 08:13:46 51°13.509 2°39.83 239.2 13.3 237 16.1
2010-10-21 08:14:46 51°13.375 2°39.548 230.7 13.4 238 14.2
2010-10-21 08:15:46 51°13.23 2°39.282 229.3 13.1 232 14.8
2010-10-21 08:16:46 51°13.088 2°39.005 230.3 13.9 234 14.1
2010-10-21 08:17:46 51°12.949 2°38.732 230.2 13.3 233 13.9
2010-10-21 08:18:46 51°12.808 2°38.462 230.1 13.4 227 14.1
2010-10-21 08:19:46 51°12.665 2°38.194 228.4 13 228 13.4
2010-10-21 08:20:46 51°12.525 2°37.925 233.8 13.4 235 13.4
2010-10-21 08:21:46 51°12.368 2°37.677 223 13.2 221 12.7
2010-10-21 08:22:46 51°12.189 2°37.467 215.2 13.3 216 12.8
2010-10-21 08:23:46 51°12.012 2°37.255 217.8 12.9 213 12.1
2010-10-21 08:24:46 51°11.832 2°37.049 217 13.2 216 12.6
2010-10-21 08:25:46 51°11.651 2°36.837 217 13.2 213 12.2
2010-10-21 08:26:46 51°11.477 2°36.617 215.7 13.2 217 11.9
2010-10-21 08:27:46 51°11.301 2°36.407 215.7 13.4 220 12.2
2010-10-21 08:28:46 51°11.115 2°36.219 214.2 12.8 210 11.7
2010-10-21 08:29:46 51°10.93 2°36.031 214.9 13.5 213 11.8
2010-10-21 08:30:46 51°10.748 2°35.84 213.1 13.4 210 12
2010-10-21 08:31:46 51°10.565 2°35.648 214.3 13.5 215 11.2
2010-10-21 08:32:46 51°10.38 2°35.459 211.1 13 207 12.1
2010-10-21 08:33:46 51°10.198 2°35.268 216.6 13.1 214 11.9
2010-10-21 08:34:46 51°10.014 2°35.078 209.8 13.6 210 12.2
2010-10-21 08:35:46 51°9.831 2°34.89 213.7 13.3 213 15.8
2010-10-21 08:36:46 51°9.651 2°34.698 211.4 12.9 205 19.1
2010-10-21 08:37:46 51°9.503 2°34.822 109.6 12 109 20.3
2010-10-21 08:38:46 51°9.482 2°35.153 96.8 12.7 98 19
2010-10-21 08:39:46 51°9.415 2°35.475 105 12.5 112 18.8
2010-10-21 08:40:46 51°9.421 2°35.797 78.7 12.3 81 17
2010-10-21 08:41:46 51°9.477 2°36.115 73.5 12.7 73 17.6
2010-10-21 08:42:46 51°9.52 2°36.438 77.1 12.7 74 17.4
2010-10-21 08:43:46 51°9.562 2°36.765 77.6 12.4 85 17.1
2010-10-21 08:44:46 51°9.568 2°37.102 89.2 12.6 93 16.9
2010-10-21 08:45:46 51°9.566 2°37.411 93.4 8.9 93 16
2010-10-21 08:46:46 51°9.52 2°37.557 150.1 5.3 160 14.9
2010-10-21 08:47:46 51°9.454 2°37.511 239.5 4.4 243 14.1
2010-10-21 08:48:46 51°9.449 2°37.473 296.9 0.1 137 14.4
2010-10-21 08:49:50 51°9.448 2°37.482 325.8 0.3 117 -999
2010-10-21 08:50:50 51°9.445 2°37.492 331.6 0.7 116 -999
2010-10-21 08:51:48 51°9.442 2°37.505 337.6 0.5 123 14.2
2010-10-21 08:52:46 51°9.439 2°37.519 347.9 0.7 92 13.9
2010-10-21 08:53:46 51°9.437 2°37.533 355.4 0.4 101 14.2
2010-10-21 08:54:46 51°9.436 2°37.547 357.6 0.4 89 13.9
2010-10-21 08:55:46 51°9.435 2°37.561 357.3 0.6 104 14
2010-10-21 08:56:46 51°9.433 2°37.577 2.5 0.7 97 13.7
2010-10-21 08:57:46 51°9.428 2°37.594 10.2 0.8 114 13.9
2010-10-21 08:58:46 51°9.424 2°37.61 18.7 0.5 106 13.9
2010-10-21 08:59:46 51°9.423 2°37.626 23.3 1.1 104 14.6
2010-10-21 09:00:46 51°9.425 2°37.643 24.2 0.7 59 13.4
2010-10-21 09:01:46 51°9.429 2°37.661 23 0.8 79 14.3
2010-10-21 09:02:46 51°9.434 2°37.68 23.5 0.6 55 13.7
2010-10-21 09:03:46 51°9.437 2°37.699 18.3 1 77 13.1
2010-10-21 09:04:46 51°9.442 2°37.717 10.6 0.9 68 14.2
2010-10-21 09:05:46 51°9.449 2°37.737 0.4 0.9 62 13.6
2010-10-21 09:06:46 51°9.451 2°37.759 3.3 0.7 83 13.6
2010-10-21 09:07:46 51°9.453 2°37.782 8.5 1 82 13.5
2010-10-21 09:08:46 51°9.456 2°37.803 10.2 0.7 69 13.9
2010-10-21 09:09:46 51°9.46 2°37.827 7.4 1 69 13.6
2010-10-21 09:10:46 51°9.491 2°37.834 335 4.3 344 13.6
2010-10-21 09:11:46 51°9.631 2°37.799 350.7 11.3 354 16.7
2010-10-21 09:12:46 51°9.834 2°37.748 337.5 11.9 335 18.8
2010-10-21 09:13:46 51°9.986 2°37.568 314.9 8.4 315 19.2
2010-10-21 09:14:46 51°10.031 2°37.47 284.4 2.2 294 19.3
2010-10-21 09:15:46 51°10.037 2°37.464 266 0.4 55 19.6
2010-10-21 09:16:46 51°10.045 2°37.48 269.6 1 48 -999
2010-10-21 09:17:49 51°10.056 2°37.503 291.1 1.3 39 5.1
2010-10-21 09:18:49 51°10.081 2°37.432 286.4 7.2 289 19.6
2010-10-21 09:19:47 51°10.143 2°37.19 289.3 11.2 292 20.1
2010-10-21 09:20:46 51°10.217 2°36.918 289 11.5 293 19.7
2010-10-21 09:21:46 51°10.287 2°36.644 289.2 11.3 292 17.6
2010-10-21 09:22:46 51°10.356 2°36.368 289.6 10.9 291 12.6
2010-10-21 09:23:46 51°10.382 2°36.225 287.5 2.6 302 12.2
2010-10-21 09:24:46 51°10.403 2°36.221 333.5 1.3 41 12.4
2010-10-21 09:25:46 51°10.411 2°36.256 355.1 1.5 81 12.6
2010-10-21 09:26:46 51°10.414 2°36.295 0.5 1.3 84 12.2
2010-10-21 09:27:46 51°10.416 2°36.335 2.3 1.4 86 11.4
2010-10-21 09:28:46 51°10.417 2°36.374 2 1.5 84 12.2
2010-10-21 09:29:46 51°10.418 2°36.414 2.6 1.3 90 12.2
2010-10-21 09:30:46 51°10.419 2°36.455 3.7 1.3 88 12.2
2010-10-21 09:31:46 51°10.42 2°36.496 3.8 1.6 84 12
2010-10-21 09:32:46 51°10.422 2°36.539 3.3 1.7 86 12.7
2010-10-21 09:33:46 51°10.423 2°36.581 2.2 1.6 89 12.4
2010-10-21 09:34:46 51°10.423 2°36.622 3.9 1.3 93 12.5
2010-10-21 09:35:46 51°10.426 2°36.666 359.2 2.1 42 12.7
2010-10-21 09:36:46 51°10.459 2°36.659 293.8 1.9 305 12
2010-10-21 09:37:46 51°10.443 2°36.614 218.3 4 199 12
2010-10-21 09:38:46 51°10.29 2°36.638 164.3 11.9 161 18
2010-10-21 09:39:46 51°10.099 2°36.801 151.9 12.9 145 20.2
2010-10-21 09:40:46 51°9.928 2°37.005 145 12.6 141 19.9
2010-10-21 09:41:46 51°9.78 2°37.193 145.8 8.6 141 19.2
2010-10-21 09:42:46 51°9.706 2°37.249 190 3.3 168 19
2010-10-21 09:43:46 51°9.66 2°37.255 204.7 2.6 185 18.9
2010-10-21 09:44:46 51°9.62 2°37.225 226 2.7 214 18.2
2010-10-21 09:45:46 51°9.593 2°37.174 238.2 2.7 234 18.5
2010-10-21 09:46:46 51°9.57 2°37.11 238.3 2.9 240 18.3
2010-10-21 09:47:46 51°9.539 2°37.054 225.7 2.9 219 17.8
2010-10-21 09:48:46 51°9.501 2°37.008 229.7 2.8 225 17.7
2010-10-21 09:49:46 51°9.472 2°36.953 239.4 2.8 231 18.5
2010-10-21 09:50:46 51°9.446 2°36.888 240.4 2.9 239 17.9
2010-10-21 09:51:46 51°9.432 2°36.814 251.1 3 258 17.9
2010-10-21 09:52:46 51°9.422 2°36.737 251.8 3 261 18.2
2010-10-21 09:53:46 51°9.412 2°36.66 250.8 3 263 17.9
2010-10-21 09:54:46 51°9.4 2°36.587 249.8 2.8 261 18.6
2010-10-21 09:55:46 51°9.389 2°36.513 250 2.9 256 18.6
2010-10-21 09:56:46 51°9.379 2°36.438 249.7 2.8 261 18.2
2010-10-21 09:57:46 51°9.367 2°36.374 251.2 2.8 260 18.7
2010-10-21 09:58:46 51°9.356 2°36.303 249.9 2.5 240 19
2010-10-21 09:59:46 51°9.327 2°36.258 221.7 2.6 205 19
2010-10-21 10:00:46 51°9.285 2°36.221 218.6 2.9 212 18.6
2010-10-21 10:01:46 51°9.242 2°36.188 217.4 2.9 208 18.4
2010-10-21 10:02:46 51°9.198 2°36.158 217.1 2.9 204 18.7
2010-10-21 10:03:46 51°9.153 2°36.129 216.6 3 203 18.5
2010-10-21 10:04:46 51°9.109 2°36.103 218.6 2.6 206 18.3
2010-10-21 10:05:46 51°9.068 2°36.068 223.1 2.8 214 17.4
2010-10-21 10:06:46 51°9.033 2°36.019 237 2.7 234 17.5
2010-10-21 10:07:46 51°9.01 2°35.955 241 2.8 241 17.3
2010-10-21 10:08:46 51°9.001 2°35.893 254.8 2.2 273 17.2
2010-10-21 10:09:46 51°9.009 2°35.844 272.2 2.2 304 18.2
2010-10-21 10:10:46 51°9.041 2°35.813 308.2 2.9 350 18.6
2010-10-21 10:11:46 51°9.102 2°35.826 352.1 4.3 17 18.8
2010-10-21 10:12:46 51°9.157 2°35.873 1.5 3.2 33 18.9
2010-10-21 10:13:46 51°9.217 2°35.922 0.8 5.4 19 18.8
2010-10-21 10:14:46 51°9.319 2°35.974 6 6.9 19 19.8
2010-10-21 10:15:46 51°9.399 2°36.024 358.9 3.9 25 19.4
2010-10-21 10:16:46 51°9.442 2°36.068 350.7 2.8 34 19.6
2010-10-21 10:17:46 51°9.474 2°36.113 342 2.3 49 19.9
2010-10-21 10:18:46 51°9.496 2°36.166 340.9 2.4 64 20.2
2010-10-21 10:19:46 51°9.526 2°36.221 350.2 3.5 27 20.1
2010-10-21 10:20:46 51°9.614 2°36.225 328.2 6.3 347 20
2010-10-21 10:21:46 51°9.722 2°36.122 307.9 8.2 321 19.8
2010-10-21 10:22:46 51°9.835 2°35.988 316.3 9.1 332 21.5
2010-10-21 10:23:46 51°10.001 2°35.942 350.3 11.2 2 20.3
2010-10-21 10:24:46 51°10.195 2°35.971 357.5 11.9 9 15.8
2010-10-21 10:25:46 51°10.39 2°36.06 12.6 12.5 20 13.5
2010-10-21 10:26:46 51°10.584 2°36.172 12.4 12.1 17 14.1
2010-10-21 10:27:46 51°10.772 2°36.279 13.3 11.8 19 14.8
2010-10-21 10:28:46 51°10.955 2°36.388 13.5 12 20 15.1
2010-10-21 10:29:46 51°11.104 2°36.476 7.3 6.7 19 15.4
2010-10-21 10:30:46 51°11.184 2°36.528 0.6 4.3 26 15.4
2010-10-21 10:31:46 51°11.251 2°36.579 5.5 6.4 22 15.4
2010-10-21 10:32:46 51°11.412 2°36.713 28.4 13.6 30 15.2
2010-10-21 10:33:46 51°11.617 2°36.881 16.6 13.8 20 14.8
2010-10-21 10:34:46 51°11.836 2°36.983 7.8 13.7 15 13.7
2010-10-21 10:35:46 51°12.049 2°37.064 9.3 13.2 15 14.6
2010-10-21 10:36:46 51°12.261 2°37.184 14.2 13.6 19 13.5
2010-10-21 10:37:46 51°12.47 2°37.32 17.3 13.7 23 13.8
2010-10-21 10:38:46 51°12.683 2°37.449 12.8 13.7 17 14.4
2010-10-21 10:39:46 51°12.899 2°37.55 7.3 13.7 13 14.5
2010-10-21 10:40:46 51°13.112 2°37.609 0.1 13.1 5 14.2
2010-10-21 10:41:46 51°13.332 2°37.631 352.4 13 358 13.1
2010-10-21 10:42:46 51°13.545 2°37.596 343.8 12.9 348 12
2010-10-21 10:43:46 51°13.748 2°37.512 331.3 12.6 340 18.8
2010-10-21 10:44:46 51°13.94 2°37.384 327.4 12.5 337 23.2
2010-10-21 10:45:46 51°14.131 2°37.257 329.1 12.5 339 19.3
2010-10-21 10:46:46 51°14.324 2°37.132 329.3 12.5 338 13.8
2010-10-21 10:47:46 51°14.515 2°37.005 328.5 12.5 337 12.7
2010-10-21 10:48:46 51°14.71 2°36.893 333.9 12.7 344 13
2010-10-21 10:49:46 51°14.911 2°36.795 335.2 12.6 344 16.6
2010-10-21 10:50:46 51°15.111 2°36.695 335 12.6 344 15.9
2010-10-21 10:51:46 51°15.313 2°36.594 334.5 12.8 340 16.8
2010-10-21 10:52:46 51°15.516 2°36.485 334.7 13 343 18.6
2010-10-21 10:53:46 51°15.719 2°36.38 335.2 13 342 24.2
2010-10-21 10:54:46 51°15.924 2°36.269 334.7 13 344 30.4
2010-10-21 10:55:46 51°16.135 2°36.169 334.9 13.1 344 30.2
2010-10-21 10:56:46 51°16.343 2°36.064 334.4 12.9 343 29.8
2010-10-21 10:57:46 51°16.549 2°35.954 330.9 13 339 29.9
2010-10-21 10:58:46 51°16.75 2°35.844 333.1 12.9 340 28.9
2010-10-21 10:59:46 51°16.953 2°35.734 335.3 12.9 343 23.5
2010-10-21 11:00:46 51°17.15 2°35.614 334 12.6 341 17.5
2010-10-21 11:01:46 51°17.349 2°35.507 334.9 12.7 342 14.4
2010-10-21 11:02:46 51°17.543 2°35.403 334.3 12.3 342 13.7
2010-10-21 11:03:46 51°17.741 2°35.303 335.2 12.3 343 16.6
2010-10-21 11:04:46 51°17.945 2°35.202 336.1 13.1 348 23.7
2010-10-21 11:05:46 51°18.141 2°35.092 333.6 12.8 340 28.3
2010-10-21 11:06:46 51°18.346 2°34.99 335.3 12.9 340 30.9
2010-10-21 11:07:47 51°18.548 2°34.888 334.6 12.5 337 27.7
2010-10-21 11:08:46 51°18.746 2°34.778 333.4 12.8 338 24.9
2010-10-21 11:09:46 51°18.948 2°34.663 332.7 13.2 341 23.9
2010-10-21 11:10:46 51°19.146 2°34.546 333.2 12.6 339 17.7
2010-10-21 11:11:46 51°19.345 2°34.443 334.6 12.5 342 18.6
2010-10-21 11:12:46 51°19.548 2°34.34 335.3 12.9 341 20.8
2010-10-21 11:13:46 51°19.751 2°34.233 334 13 339 31.3
2010-10-21 11:14:46 51°19.961 2°34.122 336.1 13.3 344 32.3
2010-10-21 11:15:46 51°20.17 2°34.009 335.9 13 341 35.3
2010-10-21 11:16:46 51°20.376 2°33.894 334.7 13.4 342 33.5
2010-10-21 11:17:46 51°20.586 2°33.78 335.7 13.2 343 34.1
2010-10-21 11:18:46 51°20.795 2°33.679 336.1 13.5 345 33.4
2010-10-21 11:19:46 51°21.002 2°33.573 334 12.7 344 35.1
2010-10-21 11:20:46 51°21.204 2°33.459 334.1 12.9 344 33.6
2010-10-21 11:21:46 51°21.407 2°33.343 333 12.9 343 32
2010-10-21 11:22:46 51°21.605 2°33.224 332.2 12.7 344 27.2
2010-10-21 11:23:46 51°21.805 2°33.112 334.3 12.3 341 25.2
2010-10-21 11:24:46 51°22.004 2°32.999 334.7 12.5 340 29.4
2010-10-21 11:25:46 51°22.203 2°32.889 335.4 12.8 341 34.3
2010-10-21 11:26:46 51°22.404 2°32.776 334.6 12.9 339 32.5
2010-10-21 11:27:46 51°22.601 2°32.661 330.5 12.7 340 33.9
2010-10-21 11:28:46 51°22.802 2°32.547 335.5 13.1 343 33.2
2010-10-21 11:29:47 51°23.013 2°32.443 334.5 12.4 346 -999
2010-10-21 11:30:46 51°23.214 2°32.344 334 13 346 32.2
2010-10-21 11:31:46 51°23.421 2°32.245 335.2 13.1 341 33.2
2010-10-21 11:32:46 51°23.619 2°32.128 327.1 12.8 337 26.8
2010-10-21 11:33:46 51°23.823 2°32.018 336.2 13.2 347 22.6
2010-10-21 11:34:46 51°24.022 2°31.903 327.1 12.6 336 28.5
2010-10-21 11:35:46 51°24.212 2°31.758 323.8 12.7 333 29.4
2010-10-21 11:36:46 51°24.398 2°31.598 321.9 12.7 329 35
2010-10-21 11:37:46 51°24.586 2°31.442 324 12.8 331 35.1
2010-10-21 11:38:46 51°24.774 2°31.282 324.9 13.1 334 37.7
2010-10-21 11:39:46 51°24.963 2°31.124 324.3 12.9 333 37.7
2010-10-21 11:40:46 51°25.151 2°30.966 322.7 12.9 333 35.6
2010-10-21 11:41:46 51°25.346 2°30.821 326.7 13.2 337 35.6
2010-10-21 11:42:46 51°25.536 2°30.667 324.5 12.8 333 35.4
2010-10-21 11:43:46 51°25.73 2°30.512 326.9 13.4 336 34.5
2010-10-21 11:44:46 51°25.918 2°30.357 323.8 12.7 334 34.2
2010-10-21 11:45:46 51°26.104 2°30.195 323.8 12.6 333 29.4
2010-10-21 11:46:46 51°26.321 2°30.223 11.4 13.5 15 24.1
2010-10-21 11:47:46 51°26.508 2°30.438 46.5 14.3 48 22.2
2010-10-21 11:48:46 51°26.607 2°30.79 74.4 14.6 68 28.1
2010-10-21 11:49:46 51°26.686 2°31.16 72.7 14.7 70 32.3
2010-10-21 11:50:46 51°26.764 2°31.535 73.3 15 66 34.4
2010-10-21 11:51:46 51°26.837 2°31.91 78.8 14.4 80 35.2
2010-10-21 11:52:46 51°26.899 2°32.285 78.3 14.8 74 35.5
2010-10-21 11:53:46 51°26.957 2°32.669 80.6 14.3 76 35.5
2010-10-21 11:54:46 51°27.024 2°33.05 75.8 15.4 72 35.8
2010-10-21 11:55:46 51°27.096 2°33.44 78.8 15.3 73 35.1
2010-10-21 11:56:46 51°27.155 2°33.832 83 15.3 81 35.3
2010-10-21 11:57:46 51°27.219 2°34.221 81 15.7 76 34.8
2010-10-21 11:58:46 51°27.27 2°34.609 79.8 14.7 78 28.8
2010-10-21 11:59:46 51°27.329 2°34.984 74.1 14.8 72 29.2
2010-10-21 12:00:46 51°27.383 2°35.366 79.4 14.6 74 30.4
2010-10-21 12:01:46 51°27.435 2°35.745 80.9 14.2 76 30.8
2010-10-21 12:02:46 51°27.491 2°36.12 77.5 14.8 74 34.1
2010-10-21 12:03:46 51°27.556 2°36.49 73.4 14 74 34.5
2010-10-21 12:04:46 51°27.618 2°36.853 80.9 14.2 75 35.7
2010-10-21 12:05:46 51°27.673 2°37.224 80.7 13.9 80 35.7
2010-10-21 12:06:46 51°27.725 2°37.6 84.8 14.1 81 34.7
2010-10-21 12:07:46 51°27.797 2°37.969 75.2 14.4 73 35.5
2010-10-21 12:08:46 51°27.838 2°38.352 84.5 14.6 81 34.8
2010-10-21 12:09:46 51°27.854 2°38.734 95.7 14.6 92 35
2010-10-21 12:10:46 51°27.849 2°39.112 100.9 14.1 96 35.1
2010-10-21 12:11:46 51°27.824 2°39.485 99.2 14.1 88 35.9
2010-10-21 12:12:46 51°27.791 2°39.857 98 13.6 98 36.3
2010-10-21 12:13:46 51°27.759 2°40.231 111.8 14.5 108 35.1
2010-10-21 12:14:46 51°27.724 2°40.599 108.7 13.9 110 -999
2010-10-21 12:15:46 51°27.688 2°40.972 102.8 13.7 102 31.8
2010-10-21 12:16:46 51°27.656 2°41.348 104.2 14.2 95 32.9
2010-10-21 12:17:46 51°27.617 2°41.719 101.9 13.9 97 33.4
2010-10-21 12:18:46 51°27.578 2°42.092 102 14.7 89 33.5
2010-10-21 12:19:46 51°27.545 2°42.468 102.4 14.4 98 33
2010-10-21 12:20:46 51°27.509 2°42.838 101.5 14.6 99 34.2
2010-10-21 12:21:46 51°27.478 2°43.208 99.8 14.3 95 33
2010-10-21 12:22:46 51°27.536 2°43.58 70 15.1 69 31.9
2010-10-21 12:23:46 51°27.65 2°43.927 61.2 14.6 62 30
2010-10-21 12:24:46 51°27.778 2°44.262 53.9 15.2 56 31.1
2010-10-21 12:25:46 51°27.92 2°44.586 57.3 14.8 62 31.2
2010-10-21 12:26:46 51°28.053 2°44.915 57.7 14.7 60 -999
2010-10-21 12:27:46 51°28.175 2°45.244 53.8 14.5 51 28.5
2010-10-21 12:28:46 51°28.305 2°45.566 55.7 14.9 55 29.7
2010-10-21 12:29:46 51°28.425 2°45.9 61.5 14.6 57 29.6
2010-10-21 12:30:46 51°28.534 2°46.241 64.7 14.5 67 29.1
2010-10-21 12:31:46 51°28.65 2°46.574 58.1 14 58 27.6
2010-10-21 12:32:46 51°28.793 2°46.874 49.9 14.5 55 28.3
2010-10-21 12:33:46 51°28.937 2°47.181 56 14.7 53 29.4
2010-10-21 12:34:46 51°29.059 2°47.51 57.1 14.5 60 29.3
2010-10-21 12:35:46 51°29.186 2°47.838 58.2 14.4 54 28.4
2010-10-21 12:36:46 51°29.308 2°48.17 59.7 14.8 56 23.7
2010-10-21 12:37:46 51°29.443 2°48.495 59.6 14.9 55 25.3
2010-10-21 12:38:46 51°29.57 2°48.822 55.8 14.4 54 27.5
2010-10-21 12:39:46 51°29.702 2°49.141 58.7 14.5 60 27.9
2010-10-21 12:40:46 51°29.853 2°49.441 53.8 14.8 56 25.2
2010-10-21 12:41:46 51°29.985 2°49.769 62 14.8 61 25.7
2010-10-21 12:42:46 51°30.112 2°50.091 52 14.8 52 23.2
2010-10-21 12:43:46 51°30.248 2°50.407 52.4 14.6 53 25.6
2010-10-21 12:44:46 51°30.377 2°50.726 55.4 14.1 57 -999
2010-10-21 12:45:46 51°30.499 2°51.058 62.5 14.2 56 23.9
2010-10-21 12:46:46 51°30.61 2°51.391 61.1 14.4 66 22.9
2010-10-21 12:47:46 51°30.72 2°51.723 60.2 13.9 59 22.3
2010-10-21 12:48:46 51°30.829 2°52.059 64.3 14.1 58 22.5
2010-10-21 12:49:46 51°30.945 2°52.391 64 14.3 56 23
2010-10-21 12:50:46 51°31.074 2°52.713 55.6 14.3 56 21.7
2010-10-21 12:51:46 51°31.193 2°53.047 59.8 14.7 61 22.2
2010-10-21 12:52:46 51°31.314 2°53.38 61.4 14.7 57 -999
2010-10-21 12:53:46 51°31.426 2°53.72 66.2 14.7 60 21.8
2010-10-21 12:54:46 51°31.527 2°54.07 73.7 15 67 22.5
2010-10-21 12:55:46 51°31.613 2°54.432 68.5 14.5 69 22
2010-10-21 12:56:46 51°31.693 2°54.793 72.6 14.3 72 20.8
2010-10-21 12:57:46 51°31.774 2°55.146 64.7 14.1 63 21.2
2010-10-21 12:58:46 51°31.87 2°55.491 75.6 13.8 75 23.1
2010-10-21 12:59:46 51°31.935 2°55.85 74.8 14.1 72 22.8
2010-10-21 13:00:46 51°31.993 2°56.213 79.1 14.6 74 22.2
2010-10-21 13:01:46 51°32.044 2°56.58 79.4 14.3 73 19
2010-10-21 13:02:46 51°32.076 2°56.947 91.2 13.9 90 20.8
2010-10-21 13:03:46 51°32.116 2°57.313 76.4 14.2 70 17.4
2010-10-21 13:04:46 51°32.281 2°57.572 33.6 14 30 19.1
2010-10-21 13:05:46 51°32.503 2°57.61 348.9 13.2 359 21.5
2010-10-21 13:06:47 51°32.725 2°57.549 346.9 12.8 350 -999
2010-10-21 13:07:46 51°32.941 2°57.579 20.4 13.5 27 21.9
2010-10-21 13:08:47 51°33.121 2°57.826 50 14.4 36 -999
2010-10-21 13:09:46 51°33.292 2°58.081 42.2 14.6 39 21.1
2010-10-21 13:10:46 51°33.438 2°58.377 51.4 13.9 53 21.5
2010-10-21 13:11:46 51°33.576 2°58.683 63.3 14.4 59 19.2
2010-10-21 13:12:46 51°33.701 2°59.004 57.8 14.8 58 22.3
2010-10-21 13:13:46 51°33.812 2°59.33 68.4 13.2 65 20
2010-10-21 13:14:46 51°33.919 2°59.666 65.8 14 57 19.7
2010-10-21 13:15:46 51°34.02 3°0.006 71.9 14 63 18.4
2010-10-21 13:16:46 51°34.111 3°0.346 73 14 67 17.4
2010-10-21 13:17:46 51°34.193 3°0.69 76.3 14 72 15.1
2010-10-21 13:18:46 51°34.278 3°1.036 66.9 13.9 57 17.4
2010-10-21 13:19:46 51°34.382 3°1.371 61.8 14.6 60 19.2
2010-10-21 13:20:46 51°34.362 3°1.689 133.6 11.2 130 20.7
2010-10-21 13:21:46 51°34.196 3°1.717 198.6 10.1 200 24
2010-10-21 13:22:46 51°34.026 3°1.659 193.5 10.8 190 28.7
2010-10-21 13:23:46 51°33.857 3°1.604 192.9 10.4 187 33.5
2010-10-21 13:24:47 51°33.685 3°1.552 194.2 9.8 194 36.8
2010-10-21 13:25:47 51°33.517 3°1.495 197.5 9.5 197 -999
2010-10-21 13:26:46 51°33.352 3°1.429 196.1 10 188 35.9
2010-10-21 13:27:46 51°33.187 3°1.368 195.7 10.4 196 34.9
2010-10-21 13:28:46 51°33.02 3°1.303 196.4 9.9 196 33
2010-10-21 13:29:46 51°32.848 3°1.238 196.3 11 191 30.5
2010-10-21 13:30:46 51°32.676 3°1.169 195.3 10.6 190 27.9
2010-10-21 13:31:46 51°32.502 3°1.087 196.6 11 195 24.9
2010-10-21 13:32:46 51°32.329 3°1.009 196.2 11.1 198 26.4
2010-10-21 13:33:46 51°32.16 3°0.95 199.7 10 198 24.5
2010-10-21 13:34:46 51°32.002 3°0.837 204.6 10.7 205 27
2010-10-21 13:35:46 51°31.841 3°0.721 208.9 10.5 200 24.7
2010-10-21 13:36:46 51°31.674 3°0.621 203.9 10.8 199 26.7
2010-10-21 13:37:46 51°31.52 3°0.481 213.3 10.9 211 28.1
2010-10-21 13:38:46 51°31.367 3°0.327 213.5 10.7 211 28.6
2010-10-21 13:39:46 51°31.208 3°0.187 209.4 10.1 208 27.2
2010-10-21 13:40:46 51°31.052 3°0.055 210.7 10.6 208 29
2010-10-21 13:41:46 51°30.899 2°59.917 209.3 10.3 209 26.7
2010-10-21 13:42:46 51°30.741 2°59.782 208.7 11.1 205 27.3
2010-10-21 13:43:46 51°30.584 2°59.633 213.8 10.3 209 26.7
2010-10-21 13:44:46 51°30.425 2°59.498 207.4 10.6 209 27.2
2010-10-21 13:45:46 51°30.267 2°59.355 206.8 11 206 26.2
2010-10-21 13:46:46 51°30.11 2°59.22 204.8 11 207 27.7
2010-10-21 13:47:46 51°29.952 2°59.076 209.8 11 209 27.1
2010-10-21 13:48:46 51°29.785 2°58.96 203.1 11.8 199 28.6
2010-10-21 13:49:46 51°29.62 2°58.838 206.5 11.2 207 28.5
2010-10-21 13:50:46 51°29.456 2°58.711 207.7 11 199 28.6
2010-10-21 13:51:46 51°29.293 2°58.583 206.2 11.1 209 28.6
2010-10-21 13:52:46 51°29.133 2°58.456 206.5 10.2 206 28.2
2010-10-21 13:53:46 51°28.971 2°58.34 206 10.8 206 29.6
2010-10-21 13:54:46 51°28.808 2°58.214 205.9 11.5 209 30.6
2010-10-21 13:55:46 51°28.644 2°58.095 203.2 10.8 201 31.4
2010-10-21 13:56:46 51°28.48 2°57.968 205.6 11 207 31.1
2010-10-21 13:57:46 51°28.314 2°57.835 206.2 11.4 205 30.9
2010-10-21 13:58:46 51°28.149 2°57.702 206.9 10.9 207 30.7
2010-10-21 13:59:46 51°27.984 2°57.58 207.5 10.6 207 31.1
2010-10-21 14:00:46 51°27.815 2°57.452 203.1 11.3 206 30.7
2010-10-21 14:01:46 51°27.647 2°57.323 204.2 11.2 209 28.5
2010-10-21 14:02:46 51°27.48 2°57.192 204.8 11.4 203 28.2
2010-10-21 14:03:46 51°27.313 2°57.057 205.7 11 207 27
2010-10-21 14:04:46 51°27.15 2°56.927 205.8 10.6 200 24.7
2010-10-21 14:05:46 51°26.979 2°56.806 203.6 11.2 203 20.6
2010-10-21 14:06:46 51°26.815 2°56.67 207.3 11.3 212 22.2
2010-10-21 14:07:46 51°26.646 2°56.536 204.4 11.1 203 22.3
2010-10-21 14:08:46 51°26.48 2°56.403 203.8 11.2 203 19.8
2010-10-21 14:09:46 51°26.317 2°56.259 206.2 11.1 205 19.6
2010-10-21 14:10:46 51°26.152 2°56.125 206.2 11.2 212 19.5
2010-10-21 14:11:46 51°25.988 2°55.984 206.9 11.1 211 18.3
2010-10-21 14:12:46 51°25.822 2°55.858 205.2 10.5 202 5.6
2010-10-21 14:13:46 51°25.656 2°55.731 204 11.1 208 18.9
2010-10-21 14:14:46 51°25.489 2°55.6 203.8 11.1 208 17.6
2010-10-21 14:15:46 51°25.323 2°55.465 207.2 11.3 211 17.8
2010-10-21 14:16:46 51°25.158 2°55.334 206.9 10.9 207 19.4
2010-10-21 14:17:46 51°24.993 2°55.192 205.5 11.4 204 20.7
2010-10-21 14:18:46 51°24.827 2°55.054 204.2 11 204 19.9
2010-10-21 14:19:46 51°24.66 2°54.922 202.6 11.6 205 22.6
2010-10-21 14:20:46 51°24.494 2°54.794 206.9 11 203 22.7
2010-10-21 14:21:46 51°24.326 2°54.657 204.8 11.4 203 23
2010-10-21 14:22:46 51°24.157 2°54.521 206 11.1 204 22.4
2010-10-21 14:23:46 51°23.985 2°54.393 206.9 11.2 208 22.2
2010-10-21 14:24:46 51°23.816 2°54.256 205.6 11.6 204 22.1
2010-10-21 14:25:46 51°23.645 2°54.121 204.7 11.6 207 20.5
2010-10-21 14:26:46 51°23.473 2°53.993 206.3 11.2 208 21.6
2010-10-21 14:27:46 51°23.301 2°53.868 200.2 11.5 204 21.5
2010-10-21 14:28:46 51°23.13 2°53.736 206.7 11.9 210 21.7
2010-10-21 14:29:46 51°22.961 2°53.595 207 11.4 210 22.2
2010-10-21 14:30:46 51°22.788 2°53.463 205.7 11.4 205 22.1
2010-10-21 14:31:46 51°22.614 2°53.327 206.2 11.6 206 23.7
2010-10-21 14:32:46 51°22.435 2°53.211 194.4 11.7 192 24.2
2010-10-21 14:33:46 51°22.247 2°53.142 192.1 11.6 194 23.8
2010-10-21 14:34:46 51°22.056 2°53.073 193.9 11.5 194 23
2010-10-21 14:35:46 51°21.865 2°52.998 190.8 12 193 21
2010-10-21 14:36:46 51°21.674 2°52.92 194.6 12.1 196 19.9
2010-10-21 14:37:46 51°21.481 2°52.838 195.3 12 195 18.3
2010-10-21 14:38:46 51°21.289 2°52.754 195.4 11.9 196 17.3
2010-10-21 14:39:46 51°21.097 2°52.67 193.6 12.3 193 16.2
2010-10-21 14:40:46 51°20.904 2°52.582 193.3 12.5 196 15.6
2010-10-21 14:41:46 51°20.709 2°52.519 188.8 12.2 186 15.8
2010-10-21 14:42:46 51°20.511 2°52.47 190.3 11.9 189 16.3
2010-10-21 14:43:46 51°20.31 2°52.446 184.3 11.7 184 16.3
2010-10-21 14:44:46 51°20.109 2°52.436 178.8 11.7 175 16.7
2010-10-21 14:45:46 51°19.91 2°52.435 182.7 11.7 184 16.3
2010-10-21 14:46:46 51°19.71 2°52.432 178.8 12.4 180 16.5
2010-10-21 14:47:46 51°19.51 2°52.431 181.3 12.7 184 16.1
2010-10-21 14:48:46 51°19.312 2°52.434 180.8 11.6 177 15.4
2010-10-21 14:49:46 51°19.113 2°52.416 185.2 11.8 185 14.2
2010-10-21 14:50:46 51°18.913 2°52.391 184.4 12.2 182 13.7
2010-10-21 14:51:46 51°18.714 2°52.364 183.3 11.9 181 12.2
2010-10-21 14:52:46 51°18.513 2°52.36 178.7 11.7 178 12
2010-10-21 14:53:46 51°18.312 2°52.356 178.8 12.4 182 11.6
2010-10-21 14:54:46 51°18.111 2°52.359 178.1 12.4 180 11.5
2010-10-21 14:55:46 51°17.913 2°52.36 177.3 11.7 178 10.9
2010-10-21 14:56:46 51°17.714 2°52.349 181.5 11.8 185 10.6
2010-10-21 14:57:46 51°17.517 2°52.299 191.7 11.5 190 10.7
2010-10-21 14:58:46 51°17.338 2°52.241 189.1 10.6 191 11.8
2010-10-21 14:59:46 51°17.164 2°52.216 178.6 10.3 176 11.9
2010-10-21 15:00:46 51°16.995 2°52.257 170.8 9.7 170 10.9
2010-10-21 15:01:46 51°16.847 2°52.326 166.8 8.9 164 11.7
2010-10-21 15:02:46 51°16.716 2°52.392 164.9 7.7 162 11.3
2010-10-21 15:03:46 51°16.599 2°52.447 166.5 7.1 165 11.7
2010-10-21 15:04:46 51°16.489 2°52.506 162.5 7 157 12.4
2010-10-21 15:05:46 51°16.389 2°52.615 144.2 7.5 138 12.6
2010-10-21 15:06:46 51°16.302 2°52.753 140.8 7.3 137 12.6
2010-10-21 15:07:46 51°16.214 2°52.889 139.9 7.3 136 12.6
2010-10-21 15:08:46 51°16.132 2°53.015 140 6.6 135 12.3
2010-10-21 15:09:46 51°16.054 2°53.14 139.8 6.6 136 12.2
2010-10-21 15:10:46 51°15.975 2°53.261 142 6.7 139 12.4
2010-10-21 15:11:46 51°15.893 2°53.372 142.7 6.5 141 11.9
2010-10-21 15:12:46 51°15.807 2°53.486 141 6.9 140 12
2010-10-21 15:13:46 51°15.714 2°53.606 140.7 7.3 143 11.6
2010-10-21 15:14:46 51°15.612 2°53.736 142.6 7.8 141 11.5
2010-10-21 15:15:46 51°15.51 2°53.858 142.2 7.6 141 11.5
2010-10-21 15:16:46 51°15.411 2°53.979 145.9 7.7 145 11.2
2010-10-21 15:17:46 51°15.304 2°54.096 145.2 7.9 145 11
2010-10-21 15:18:46 51°15.196 2°54.215 147.6 7.8 148 10.6
2010-10-21 15:19:46 51°15.089 2°54.333 147.3 7.8 145 10.4
2010-10-21 15:20:46 51°14.98 2°54.456 145.6 8.2 144 10.4
2010-10-21 15:21:46 51°14.871 2°54.582 143.5 8 141 11.8
2010-10-21 15:22:46 51°14.768 2°54.711 142.1 7.8 141 11.2
2010-10-21 15:23:46 51°14.663 2°54.836 142.1 8 143 11.8
2010-10-21 15:24:46 51°14.55 2°54.964 140.4 8.7 145 11.8
2010-10-21 15:25:46 51°14.434 2°55.098 144.2 8.5 144 10.4
2010-10-21 15:26:46 51°14.319 2°55.223 145.2 8.1 148 10
2010-10-21 15:27:46 51°14.207 2°55.332 149.9 7.9 154 5.6
2010-10-21 15:28:46 51°14.093 2°55.422 152.2 7.5 155 9.4
2010-10-21 15:29:46 51°13.987 2°55.504 153.5 6.6 154 10
2010-10-21 15:30:46 51°13.891 2°55.579 152.6 6.3 154 10.9
2010-10-21 15:31:46 51°13.799 2°55.657 147.4 6.5 148 11.6
2010-10-21 15:32:46 51°13.726 2°55.77 127 5.9 128 11.5
2010-10-21 15:33:46 51°13.674 2°55.885 113.9 4.5 115 9.2
2010-10-21 15:34:46 51°13.662 2°55.958 124.5 0.8 138 8